createdAt,value
2023-04-28T00:00:36.602Z,8.10
2023-04-28T00:03:03.617Z,8.20
2023-04-28T00:05:30.691Z,8.30
2023-04-28T00:07:57.487Z,8.40
2023-04-28T00:10:24.246Z,8.60
2023-04-28T00:12:51.042Z,8.70
2023-04-28T00:15:17.825Z,8.80
2023-04-28T00:17:44.664Z,8.80
2023-04-28T00:20:11.872Z,8.80
2023-04-28T00:22:39.027Z,8.80
2023-04-28T00:25:06.632Z,8.90
2023-04-28T00:27:34.008Z,9.00
2023-04-28T00:30:01.004Z,9.00
2023-04-28T00:32:28.014Z,9.00
2023-04-28T00:34:54.830Z,9.10
2023-04-28T00:37:21.604Z,9.20
2023-04-28T00:39:48.362Z,9.30
2023-04-28T00:42:15.900Z,9.40
2023-04-28T00:44:42.806Z,9.50
2023-04-28T00:47:10.184Z,9.60
2023-04-28T00:49:37.939Z,9.70
2023-04-28T00:52:06.923Z,9.70
2023-04-28T00:54:37.587Z,9.80
2023-04-28T00:57:04.798Z,9.80
2023-04-28T00:59:31.825Z,9.80
2023-04-28T01:02:00.793Z,9.80
2023-04-28T01:04:29.925Z,9.80
2023-04-28T01:06:58.117Z,9.80
2023-04-28T01:09:25.671Z,9.80
2023-04-28T01:11:53.901Z,9.90
2023-04-28T01:14:41.420Z,9.90
2023-04-28T01:17:08.872Z,9.90
2023-04-28T01:19:36.068Z,9.90
2023-04-28T01:22:02.832Z,9.90
2023-04-28T01:24:29.616Z,9.90
2023-04-28T01:27:00.114Z,9.90
2023-04-28T01:29:28.161Z,9.90
2023-04-28T01:31:55.416Z,9.90
2023-04-28T01:34:22.352Z,9.90
2023-04-28T01:36:49.198Z,9.90
2023-04-28T01:39:16.671Z,9.90
2023-04-28T01:41:43.441Z,10.00
2023-04-28T01:44:11.861Z,10.00
2023-04-28T01:46:38.814Z,9.90
2023-04-28T01:49:05.823Z,9.90
2023-04-28T01:51:34.104Z,9.90
2023-04-28T01:54:02.201Z,9.90
2023-04-28T01:56:29.861Z,9.90
2023-04-28T01:58:57.939Z,9.90
2023-04-28T02:01:25.047Z,9.90
2023-04-28T02:03:52.114Z,9.90
2023-04-28T02:06:18.898Z,9.90
2023-04-28T02:08:45.711Z,9.90
2023-04-28T02:11:13.059Z,10.00
2023-04-28T02:13:39.801Z,9.90
2023-04-28T02:16:07.153Z,9.90
2023-04-28T02:18:35.974Z,9.90
2023-04-28T02:21:10.953Z,9.80
2023-04-28T02:23:38.244Z,9.80
2023-04-28T02:26:05.863Z,9.70
2023-04-28T02:28:32.899Z,9.60
2023-04-28T02:31:11.246Z,9.60
2023-04-28T02:33:38.868Z,9.50
2023-04-28T02:36:06.868Z,9.50
2023-04-28T02:38:33.797Z,9.40
2023-04-28T02:41:02.471Z,9.40
2023-04-28T02:43:29.587Z,9.30
2023-04-28T02:45:56.872Z,9.30
2023-04-28T02:48:24.793Z,9.30
2023-04-28T02:50:53.157Z,9.20
2023-04-28T02:53:20.843Z,9.20
2023-04-28T02:55:48.078Z,9.20
2023-04-28T02:58:15.269Z,9.20
2023-04-28T03:00:42.090Z,9.20
2023-04-28T03:03:09.008Z,9.10
2023-04-28T03:05:36.091Z,9.10
2023-04-28T03:08:02.923Z,9.10
2023-04-28T03:10:29.708Z,9.10
2023-04-28T03:12:56.606Z,9.10
2023-04-28T03:15:23.588Z,9.20
2023-04-28T03:17:50.522Z,9.20
2023-04-28T03:20:18.042Z,9.20
2023-04-28T03:22:44.851Z,9.20
2023-04-28T03:25:12.219Z,9.20
2023-04-28T03:27:47.027Z,9.20
2023-04-28T03:30:14.105Z,9.30
2023-04-28T03:32:41.301Z,9.30
2023-04-28T03:35:08.803Z,9.40
2023-04-28T03:37:35.867Z,9.40
2023-04-28T03:40:03.484Z,9.50
2023-04-28T03:42:38.696Z,9.50
2023-04-28T03:45:10.893Z,9.60
2023-04-28T03:47:37.775Z,9.70
2023-04-28T03:50:04.758Z,9.80
2023-04-28T03:52:31.647Z,9.80
2023-04-28T03:54:58.459Z,9.70
2023-04-28T03:57:25.295Z,9.80
2023-04-28T03:59:52.114Z,9.70
2023-04-28T04:02:19.002Z,9.70
2023-04-28T04:04:45.972Z,9.60
2023-04-28T04:07:13.640Z,9.70
2023-04-28T04:09:40.791Z,9.60
2023-04-28T04:12:07.810Z,9.60
2023-04-28T04:14:34.732Z,9.60
2023-04-28T04:17:02.256Z,9.50
2023-04-28T04:19:29.304Z,9.50
2023-04-28T04:21:56.652Z,9.40
2023-04-28T04:24:23.638Z,9.40
2023-04-28T04:26:50.442Z,9.40
2023-04-28T04:29:36.567Z,9.40
2023-04-28T04:32:08.466Z,9.40
2023-04-28T04:34:35.347Z,9.40
2023-04-28T04:37:02.373Z,9.40
2023-04-28T04:39:29.530Z,9.50
2023-04-28T04:41:56.296Z,9.40
2023-04-28T04:44:35.156Z,9.40
2023-04-28T04:47:02.529Z,9.50
2023-04-28T04:49:30.578Z,9.50
2023-04-28T04:51:57.584Z,9.50
2023-04-28T04:54:24.747Z,9.60
2023-04-28T04:56:52.419Z,9.70
2023-04-28T04:59:32.494Z,9.80
2023-04-28T05:02:07.949Z,9.80
2023-04-28T05:04:35.220Z,9.90
2023-04-28T05:07:02.173Z,9.90
2023-04-28T05:09:30.587Z,9.90
2023-04-28T05:11:57.846Z,9.90
2023-04-28T05:14:25.778Z,9.90
2023-04-28T05:16:52.872Z,9.90
2023-04-28T05:19:25.670Z,9.90
2023-04-28T05:21:54.740Z,9.90
2023-04-28T05:24:25.722Z,9.90
2023-04-28T05:26:54.203Z,9.90
2023-04-28T05:29:21.904Z,9.90
2023-04-28T05:31:48.907Z,9.90
2023-04-28T05:34:16.137Z,9.90
2023-04-28T05:36:44.524Z,9.80
2023-04-28T05:39:12.836Z,9.80
2023-04-28T05:41:41.010Z,9.80
2023-04-28T05:44:07.778Z,9.80
2023-04-28T05:46:34.755Z,9.80
2023-04-28T05:49:01.539Z,9.90
2023-04-28T05:51:35.526Z,9.90
2023-04-28T05:54:02.989Z,9.90
2023-04-28T05:56:30.414Z,9.90
2023-04-28T05:58:59.064Z,9.90
2023-04-28T06:01:26.240Z,9.80
2023-04-28T06:03:53.926Z,9.80
2023-04-28T06:06:21.787Z,9.80
2023-04-28T06:08:48.689Z,9.70
2023-04-28T06:11:15.535Z,9.70
2023-04-28T06:13:42.361Z,9.70
2023-04-28T06:16:09.228Z,9.70
2023-04-28T06:18:36.709Z,9.70
2023-04-28T06:21:04.311Z,9.70
2023-04-28T06:23:31.345Z,9.70
2023-04-28T06:25:58.364Z,9.70
2023-04-28T06:28:25.187Z,9.70
2023-04-28T06:30:53.353Z,9.70
2023-04-28T06:33:20.178Z,9.70
2023-04-28T06:35:47.173Z,9.70
2023-04-28T06:38:15.555Z,9.70
2023-04-28T06:40:42.334Z,9.60
2023-04-28T06:43:09.247Z,9.70
2023-04-28T06:46:01.384Z,9.70
2023-04-28T06:48:28.373Z,9.70
2023-04-28T06:50:55.199Z,9.70
2023-04-28T06:53:22.885Z,9.70
2023-04-28T06:55:49.681Z,9.70
2023-04-28T06:58:16.428Z,9.80
2023-04-28T07:00:43.197Z,9.80
2023-04-28T07:03:10.053Z,9.80
2023-04-28T07:05:37.035Z,9.80
2023-04-28T07:08:04.070Z,9.80
2023-04-28T07:10:30.812Z,9.80
2023-04-28T07:12:57.763Z,9.70
2023-04-28T07:15:24.760Z,9.70
2023-04-28T07:17:51.650Z,9.70
2023-04-28T07:20:18.531Z,9.70
2023-04-28T07:22:45.267Z,9.70
2023-04-28T07:25:12.169Z,9.80
2023-04-28T07:27:38.956Z,9.80
2023-04-28T07:30:18.489Z,9.80
2023-04-28T07:32:52.626Z,9.80
2023-04-28T07:35:19.452Z,9.80
2023-04-28T07:37:46.307Z,9.80
2023-04-28T07:40:13.176Z,9.90
2023-04-28T07:42:39.993Z,9.90
2023-04-28T07:45:07.303Z,10.00
2023-04-28T07:47:34.300Z,10.00
2023-04-28T07:50:04.881Z,10.00
2023-04-28T07:52:32.392Z,10.00
2023-04-28T07:54:59.754Z,10.00
2023-04-28T07:57:26.832Z,10.00
2023-04-28T07:59:53.560Z,9.90
2023-04-28T08:02:20.901Z,9.90
2023-04-28T08:04:48.024Z,10.00
2023-04-28T08:07:15.072Z,10.00
2023-04-28T08:09:44.289Z,10.00
2023-04-28T08:12:11.038Z,10.00
2023-04-28T08:14:37.840Z,10.00
2023-04-28T08:17:04.817Z,10.00
2023-04-28T08:19:31.612Z,10.00
2023-04-28T08:22:00.034Z,10.00
2023-04-28T08:24:30.857Z,10.00
2023-04-28T08:26:58.077Z,10.00
2023-04-28T08:29:25.991Z,10.10
2023-04-28T08:31:52.887Z,10.00
2023-04-28T08:34:20.051Z,10.10
2023-04-28T08:36:47.103Z,10.10
2023-04-28T08:39:13.920Z,10.20
2023-04-28T08:41:41.411Z,10.20
2023-04-28T08:44:11.792Z,10.30
2023-04-28T08:46:43.419Z,10.30
2023-04-28T08:49:18.507Z,10.30
2023-04-28T08:51:59.718Z,10.30
2023-04-28T08:54:37.859Z,10.40
2023-04-28T08:57:05.613Z,10.50
2023-04-28T08:59:32.900Z,10.40
2023-04-28T09:02:00.541Z,10.50
2023-04-28T09:04:27.952Z,10.50
2023-04-28T09:06:54.982Z,10.60
2023-04-28T09:09:34.228Z,10.60
2023-04-28T09:12:04.754Z,10.70
2023-04-28T09:14:34.519Z,10.70
2023-04-28T09:17:02.920Z,10.80
2023-04-28T09:19:37.704Z,10.90
2023-04-28T09:22:24.016Z,11.00
2023-04-28T09:24:55.063Z,11.00
2023-04-28T09:27:28.042Z,11.10
2023-04-28T09:29:55.072Z,11.20
2023-04-28T09:32:23.541Z,11.40
2023-04-28T09:34:52.576Z,11.50
2023-04-28T09:37:27.371Z,11.70
2023-04-28T09:39:55.195Z,11.90
2023-04-28T09:42:37.513Z,12.00
2023-04-28T09:45:09.299Z,12.10
2023-04-28T09:47:38.326Z,12.20
2023-04-28T09:50:09.240Z,12.10
2023-04-28T09:52:36.828Z,12.10
2023-04-28T09:55:05.692Z,12.00
2023-04-28T09:57:33.926Z,12.10
2023-04-28T10:00:02.177Z,12.10
2023-04-28T10:02:43.481Z,12.20
2023-04-28T10:05:11.602Z,12.20
2023-04-28T10:07:40.181Z,12.20
2023-04-28T10:10:08.064Z,12.20
2023-04-28T10:12:37.990Z,12.20
2023-04-28T10:15:05.407Z,12.30
2023-04-28T10:17:33.710Z,12.30
2023-04-28T10:20:00.587Z,12.40
2023-04-28T10:23:09.570Z,12.40
2023-04-28T10:25:37.255Z,12.40
2023-04-28T10:28:09.151Z,12.50
2023-04-28T10:30:38.066Z,12.60
2023-04-28T10:33:14.059Z,12.70
2023-04-28T10:35:47.891Z,12.80
2023-04-28T10:38:19.009Z,12.90
2023-04-28T10:40:47.582Z,13.10
2023-04-28T10:43:31.660Z,13.10
2023-04-28T10:46:01.831Z,13.30
2023-04-28T10:48:37.612Z,13.40
2023-04-28T10:51:04.429Z,13.50
2023-04-28T10:53:47.136Z,13.60
2023-04-28T10:56:24.880Z,13.70
2023-04-28T10:58:53.396Z,13.70
2023-04-28T11:01:20.246Z,13.70
2023-04-28T11:03:50.150Z,13.70
2023-04-28T11:06:28.770Z,13.80
2023-04-28T11:09:14.861Z,13.90
2023-04-28T11:12:19.074Z,14.00
2023-04-28T11:14:45.922Z,13.90
2023-04-28T11:17:13.992Z,13.90
2023-04-28T11:19:46.062Z,13.80
2023-04-28T11:22:20.694Z,13.80
2023-04-28T11:25:01.396Z,13.70
2023-04-28T11:27:33.259Z,13.70
2023-04-28T11:30:01.635Z,13.60
2023-04-28T11:32:30.628Z,13.50
2023-04-28T11:34:57.616Z,13.50
2023-04-28T11:37:24.778Z,13.40
2023-04-28T11:39:52.582Z,13.40
2023-04-28T11:42:19.576Z,13.30
2023-04-28T11:44:52.711Z,13.30
2023-04-28T11:47:30.401Z,13.30
2023-04-28T11:49:57.991Z,13.30
2023-04-28T11:52:27.215Z,13.40
2023-04-28T11:55:00.286Z,13.30
2023-04-28T11:57:27.683Z,13.40
2023-04-28T11:59:54.599Z,13.30
2023-04-28T12:02:28.122Z,13.40
2023-04-28T12:04:55.273Z,13.40
2023-04-28T12:07:22.177Z,13.40
2023-04-28T12:10:09.509Z,13.40
2023-04-28T12:12:48.954Z,13.50
2023-04-28T12:15:18.819Z,13.60
2023-04-28T12:17:47.492Z,13.60
2023-04-28T12:20:38.488Z,13.70
2023-04-28T12:23:06.440Z,13.70
2023-04-28T12:25:35.071Z,13.70
2023-04-28T12:28:08.417Z,13.70
2023-04-28T12:30:42.424Z,13.80
2023-04-28T12:33:29.671Z,13.90
2023-04-28T12:35:57.863Z,14.00
2023-04-28T12:38:25.999Z,14.00
2023-04-28T12:40:53.220Z,14.00
2023-04-28T12:43:23.022Z,14.10
2023-04-28T12:45:51.120Z,14.10
2023-04-28T12:48:17.902Z,14.10
2023-04-28T12:50:44.731Z,14.10
2023-04-28T12:53:11.963Z,14.00
2023-04-28T12:55:41.583Z,14.00
2023-04-28T12:58:11.229Z,14.00
2023-04-28T13:00:38.256Z,14.00
2023-04-28T13:03:05.208Z,14.00
2023-04-28T13:05:33.125Z,13.90
2023-04-28T13:07:59.984Z,13.90
2023-04-28T13:10:26.911Z,13.80
2023-04-28T13:12:53.806Z,13.80
2023-04-28T13:15:20.946Z,13.80
2023-04-28T13:17:48.603Z,13.80
2023-04-28T13:20:15.498Z,13.80
2023-04-28T13:22:42.611Z,13.70
2023-04-28T13:25:10.126Z,13.70
2023-04-28T13:27:37.843Z,13.60
2023-04-28T13:30:05.734Z,13.60
2023-04-28T13:32:32.564Z,13.60
2023-04-28T13:34:59.366Z,13.50
2023-04-28T13:37:26.516Z,13.50
2023-04-28T13:39:53.354Z,13.50
2023-04-28T13:42:20.178Z,13.50
2023-04-28T13:44:49.172Z,13.50
2023-04-28T13:47:16.285Z,13.50
2023-04-28T13:49:43.531Z,13.50
2023-04-28T13:52:10.422Z,13.50
2023-04-28T13:54:37.224Z,13.60
2023-04-28T13:57:04.198Z,13.70
2023-04-28T13:59:31.072Z,13.80
2023-04-28T14:01:57.868Z,13.90
2023-04-28T14:04:24.887Z,14.00
2023-04-28T14:06:52.545Z,14.20
2023-04-28T14:09:19.474Z,14.20
2023-04-28T14:11:46.460Z,14.20
2023-04-28T14:14:13.290Z,14.30
2023-04-28T14:16:40.117Z,14.20
2023-04-28T14:19:07.342Z,14.20
2023-04-28T14:21:35.230Z,14.20
2023-04-28T14:24:02.111Z,14.20
2023-04-28T14:26:29.000Z,14.20
2023-04-28T14:28:55.965Z,14.10
2023-04-28T14:31:22.770Z,14.10
2023-04-28T14:33:49.989Z,14.00
2023-04-28T14:36:16.924Z,14.00
2023-04-28T14:38:43.713Z,14.00
2023-04-28T14:41:10.628Z,14.10
2023-04-28T14:43:38.062Z,14.20
2023-04-28T14:46:05.951Z,14.30
2023-04-28T14:48:33.889Z,14.30
2023-04-28T14:51:01.525Z,14.30
2023-04-28T14:53:28.730Z,14.30
2023-04-28T14:56:01.988Z,14.20
2023-04-28T14:58:38.456Z,14.30
2023-04-28T15:01:05.379Z,14.30
2023-04-28T15:03:32.702Z,14.30
2023-04-28T15:05:59.878Z,14.40
2023-04-28T15:08:28.252Z,14.50
2023-04-28T15:10:56.908Z,14.50
2023-04-28T15:13:25.441Z,14.50
2023-04-28T15:15:52.296Z,14.50
2023-04-28T15:18:19.281Z,14.40
2023-04-28T15:20:46.112Z,14.40
2023-04-28T15:23:12.930Z,14.40
2023-04-28T15:25:39.787Z,14.40
2023-04-28T15:28:07.410Z,14.40
2023-04-28T15:30:34.200Z,14.40
2023-04-28T15:33:01.627Z,14.50
2023-04-28T15:35:28.782Z,14.50
2023-04-28T15:37:55.880Z,14.50
2023-04-28T15:40:22.981Z,14.60
2023-04-28T15:42:54.502Z,14.60
2023-04-28T15:45:22.572Z,14.50
2023-04-28T15:47:50.901Z,14.50
2023-04-28T15:50:21.525Z,14.40
2023-04-28T15:52:52.611Z,14.30
2023-04-28T15:55:21.652Z,14.30
2023-04-28T15:57:49.238Z,14.20
2023-04-28T16:00:17.017Z,14.10
2023-04-28T16:02:44.771Z,14.00
2023-04-28T16:05:12.308Z,14.00
2023-04-28T16:07:40.959Z,13.90
2023-04-28T16:10:13.594Z,13.90
2023-04-28T16:12:41.147Z,13.90
2023-04-28T16:15:09.959Z,13.90
2023-04-28T16:17:38.585Z,13.90
2023-04-28T16:20:07.118Z,13.80
2023-04-28T16:22:35.077Z,13.80
2023-04-28T16:25:03.792Z,13.70
2023-04-28T16:27:31.419Z,13.70
2023-04-28T16:29:58.549Z,13.70
2023-04-28T16:32:25.357Z,13.70
2023-04-28T16:34:52.459Z,13.60
2023-04-28T16:37:19.533Z,13.60
2023-04-28T16:39:46.573Z,13.60
2023-04-28T16:42:13.378Z,13.60
2023-04-28T16:44:40.163Z,13.50
2023-04-28T16:47:07.809Z,13.50
2023-04-28T16:49:34.745Z,13.50
2023-04-28T16:52:04.727Z,13.40
2023-04-28T16:54:32.492Z,13.40
2023-04-28T16:57:00.750Z,13.40
2023-04-28T16:59:30.447Z,13.30
2023-04-28T17:01:58.018Z,13.30
2023-04-28T17:04:25.535Z,13.30
2023-04-28T17:06:53.148Z,13.40
2023-04-28T17:09:21.088Z,13.10
2023-04-28T17:11:48.554Z,12.90
2023-04-28T17:14:16.513Z,12.70
2023-04-28T17:16:43.955Z,12.50
2023-04-28T17:19:11.456Z,12.40
2023-04-28T17:21:38.546Z,12.30
2023-04-28T17:24:05.760Z,12.20
2023-04-28T17:26:32.820Z,12.20
2023-04-28T17:29:00.307Z,12.10
2023-04-28T17:31:28.367Z,12.00
2023-04-28T17:33:57.572Z,12.00
2023-04-28T17:36:27.020Z,11.90
2023-04-28T17:38:54.640Z,11.80
2023-04-28T17:41:22.566Z,11.80
2023-04-28T17:43:51.705Z,11.70
2023-04-28T17:46:18.894Z,11.70
2023-04-28T17:48:45.866Z,11.70
2023-04-28T17:51:15.236Z,11.60
2023-04-28T17:53:42.485Z,11.60
2023-04-28T17:56:09.465Z,11.60
2023-04-28T17:58:37.258Z,11.50
2023-04-28T18:01:05.986Z,11.40
2023-04-28T18:03:35.022Z,11.40
2023-04-28T18:06:02.378Z,11.40
2023-04-28T18:08:29.065Z,11.30
2023-04-28T18:10:57.878Z,11.30
2023-04-28T18:13:24.695Z,11.30
2023-04-28T18:15:51.620Z,11.30
2023-04-28T18:18:19.569Z,11.20
2023-04-28T18:20:47.332Z,11.20
2023-04-28T18:23:14.119Z,11.30
2023-04-28T18:25:41.059Z,11.20
2023-04-28T18:28:10.412Z,11.20
2023-04-28T18:30:39.960Z,11.20
2023-04-28T18:33:08.196Z,11.10
2023-04-28T18:35:36.848Z,11.10
2023-04-28T18:38:05.034Z,11.00
2023-04-28T18:40:33.151Z,10.90
2023-04-28T18:43:01.938Z,10.90
2023-04-28T18:45:31.159Z,10.80
2023-04-28T18:47:59.082Z,10.70
2023-04-28T18:50:26.734Z,10.60
2023-04-28T18:52:53.536Z,10.60
2023-04-28T18:55:20.663Z,10.50
2023-04-28T18:57:48.104Z,10.50
2023-04-28T19:00:15.596Z,10.40
2023-04-28T19:02:43.020Z,10.40
2023-04-28T19:05:10.110Z,10.30
2023-04-28T19:07:37.632Z,10.30
2023-04-28T19:10:05.868Z,10.20
2023-04-28T19:12:32.704Z,10.10
2023-04-28T19:14:59.937Z,10.10
2023-04-28T19:17:27.725Z,10.00
2023-04-28T19:19:56.289Z,10.00
2023-04-28T19:22:37.247Z,9.90
2023-04-28T19:25:05.344Z,9.90
2023-04-28T19:27:40.211Z,10.00
2023-04-28T19:30:09.492Z,10.00
2023-04-28T19:32:36.428Z,10.00
2023-04-28T19:35:04.388Z,10.00
2023-04-28T19:37:35.154Z,9.90
2023-04-28T19:40:04.900Z,9.90
2023-04-28T19:42:33.094Z,9.90
2023-04-28T19:45:00.026Z,9.80
2023-04-28T19:47:35.534Z,9.80
2023-04-28T19:50:02.642Z,9.80
2023-04-28T19:52:29.905Z,9.70
2023-04-28T19:54:57.278Z,9.70
2023-04-28T19:57:24.213Z,9.60
2023-04-28T19:59:51.248Z,9.50
2023-04-28T20:02:18.803Z,9.40
2023-04-28T20:04:46.413Z,9.30
2023-04-28T20:07:14.063Z,9.20
2023-04-28T20:09:40.926Z,9.20
2023-04-28T20:12:08.986Z,9.10
2023-04-28T20:14:37.511Z,9.10
2023-04-28T20:17:07.394Z,9.10
2023-04-28T20:19:35.028Z,9.10
2023-04-28T20:22:08.379Z,9.00
2023-04-28T20:24:36.364Z,8.90
2023-04-28T20:27:04.137Z,8.80
2023-04-28T20:29:34.492Z,8.80
2023-04-28T20:32:02.392Z,8.70
2023-04-28T20:34:29.318Z,8.60
2023-04-28T20:36:57.234Z,8.70
2023-04-28T20:39:24.061Z,8.70
2023-04-28T20:41:51.615Z,8.60
2023-04-28T20:44:18.418Z,8.60
2023-04-28T20:46:45.851Z,8.70
2023-04-28T20:49:13.326Z,8.70
2023-04-28T20:51:45.373Z,8.70
2023-04-28T20:54:12.921Z,8.70
2023-04-28T20:56:40.353Z,8.60
2023-04-28T20:59:07.140Z,8.60
2023-04-28T21:01:33.957Z,8.70
2023-04-28T21:04:00.901Z,8.80
2023-04-28T21:06:27.668Z,8.90
2023-04-28T21:08:54.977Z,9.00
2023-04-28T21:11:21.728Z,9.00
2023-04-28T21:13:48.593Z,9.00
2023-04-28T21:16:20.562Z,9.10
2023-04-28T21:18:48.844Z,9.20
2023-04-28T21:21:15.796Z,9.30
2023-04-28T21:23:43.023Z,9.40
2023-04-28T21:26:10.318Z,9.50
2023-04-28T21:28:37.727Z,9.70
2023-04-28T21:31:04.911Z,9.90
2023-04-28T21:33:32.374Z,10.20
2023-04-28T21:36:05.549Z,10.40
2023-04-28T21:38:33.300Z,10.60
2023-04-28T21:41:00.374Z,10.80
2023-04-28T21:43:27.110Z,10.90
2023-04-28T21:45:53.882Z,11.00
2023-04-28T21:48:21.338Z,11.00
2023-04-28T21:50:48.141Z,11.00
2023-04-28T21:53:14.965Z,11.00
2023-04-28T21:55:44.276Z,11.10
2023-04-28T21:58:11.224Z,11.10
2023-04-28T22:00:43.254Z,11.10
2023-04-28T22:03:11.231Z,11.20
2023-04-28T22:05:40.241Z,11.20
2023-04-28T22:08:07.274Z,11.30
2023-04-28T22:10:34.915Z,11.40
2023-04-28T22:13:01.850Z,11.40
2023-04-28T22:15:28.815Z,11.50
2023-04-28T22:17:55.632Z,11.50
2023-04-28T22:20:22.410Z,11.50
2023-04-28T22:22:49.157Z,11.60
2023-04-28T22:25:16.654Z,11.60
2023-04-28T22:27:43.394Z,11.70
2023-04-28T22:30:10.809Z,11.70
2023-04-28T22:32:37.620Z,11.70
2023-04-28T22:35:04.696Z,11.70
2023-04-28T22:37:31.628Z,11.80
2023-04-28T22:39:58.369Z,11.70
2023-04-28T22:42:25.105Z,11.70
2023-04-28T22:44:51.818Z,11.70
2023-04-28T22:47:18.585Z,11.60
2023-04-28T22:49:45.364Z,11.70
2023-04-28T22:52:12.157Z,11.60
2023-04-28T22:54:38.875Z,11.60
2023-04-28T22:57:05.679Z,11.60
2023-04-28T22:59:33.134Z,11.60
2023-04-28T23:01:59.994Z,11.60
2023-04-28T23:04:27.014Z,11.60
2023-04-28T23:06:53.874Z,11.60
2023-04-28T23:09:20.981Z,11.60
2023-04-28T23:11:47.680Z,11.60
2023-04-28T23:14:14.472Z,11.50
2023-04-28T23:16:41.555Z,11.40
2023-04-28T23:19:08.768Z,11.40
2023-04-28T23:21:35.590Z,11.40
2023-04-28T23:24:02.348Z,11.40
2023-04-28T23:26:29.103Z,11.30
2023-04-28T23:28:55.821Z,11.30
2023-04-28T23:31:22.624Z,11.30
2023-04-28T23:33:49.422Z,11.30
2023-04-28T23:36:16.134Z,11.30
2023-04-28T23:38:42.902Z,11.30
2023-04-28T23:41:09.685Z,11.30
2023-04-28T23:43:36.848Z,11.20
2023-04-28T23:46:04.470Z,11.20
2023-04-28T23:48:31.373Z,11.20
2023-04-28T23:50:58.266Z,11.20
2023-04-28T23:53:25.592Z,11.20
2023-04-28T23:55:52.423Z,11.30
2023-04-28T23:58:19.184Z,11.30
